createdAt,value
2023-12-11T00:00:57.140Z,22.92
2023-12-11T00:03:24.313Z,27.27
2023-12-11T00:05:51.302Z,28.38
2023-12-11T00:08:18.234Z,26.77
2023-12-11T00:10:45.140Z,25.33
2023-12-11T00:13:12.055Z,27.23
2023-12-11T00:15:40.405Z,27.75
2023-12-11T00:18:07.493Z,24.33
2023-12-11T00:20:34.456Z,32.50
2023-12-11T00:23:01.380Z,26.38
2023-12-11T00:25:29.096Z,29.45
2023-12-11T00:27:56.165Z,24.60
2023-12-11T00:30:23.426Z,26.38
2023-12-11T00:32:50.374Z,24.15
2023-12-11T00:35:17.253Z,29.15
2023-12-11T00:37:44.129Z,20.92
2023-12-11T00:40:11.390Z,21.70
2023-12-11T00:42:38.285Z,28.65
2023-12-11T00:45:05.757Z,31.45
2023-12-11T00:47:32.916Z,28.77
2023-12-11T00:50:00.459Z,24.25
2023-12-11T00:52:28.970Z,32.17
2023-12-11T00:54:56.005Z,27.15
2023-12-11T00:57:23.473Z,22.80
2023-12-11T00:59:50.691Z,23.88
2023-12-11T01:02:19.104Z,26.15
2023-12-11T01:04:46.150Z,23.15
2023-12-11T01:07:13.121Z,26.55
2023-12-11T01:09:40.074Z,24.95
2023-12-11T01:12:07.360Z,24.42
2023-12-11T01:14:34.230Z,23.05
2023-12-11T01:17:35.872Z,30.80
2023-12-11T01:19:48.384Z,25.38
2023-12-11T01:22:15.352Z,19.25
2023-12-11T01:24:42.501Z,28.92
2023-12-11T01:27:09.451Z,24.67
2023-12-11T01:29:36.316Z,27.35
2023-12-11T01:32:03.316Z,26.95
2023-12-11T01:34:30.321Z,31.83
2023-12-11T01:36:57.297Z,29.02
2023-12-11T01:39:24.732Z,26.95
2023-12-11T01:41:51.575Z,26.70
2023-12-11T01:44:20.465Z,26.50
2023-12-11T01:46:48.016Z,26.17
2023-12-11T01:49:15.162Z,21.45
2023-12-11T01:51:42.978Z,30.67
2023-12-11T01:54:09.966Z,30.58
2023-12-11T01:56:37.301Z,30.42
2023-12-11T01:59:04.214Z,29.42
2023-12-11T02:01:31.461Z,36.00
2023-12-11T02:03:58.700Z,22.30
2023-12-11T02:06:25.869Z,31.23
2023-12-11T02:08:52.755Z,26.48
2023-12-11T02:11:20.193Z,32.70
2023-12-11T02:13:47.063Z,34.22
2023-12-11T02:16:17.533Z,20.90
2023-12-11T02:18:45.406Z,29.55
2023-12-11T02:21:12.889Z,36.42
2023-12-11T02:24:00.579Z,32.67
2023-12-11T02:26:27.783Z,33.38
2023-12-11T02:28:54.630Z,31.35
2023-12-11T02:31:21.534Z,26.35
2023-12-11T02:33:48.650Z,33.15
2023-12-11T02:36:15.650Z,31.15
2023-12-11T02:38:42.596Z,26.00
2023-12-11T02:41:09.513Z,29.67
2023-12-11T02:43:36.627Z,31.85
2023-12-11T02:46:06.461Z,32.67
2023-12-11T02:48:33.722Z,23.50
2023-12-11T02:51:00.783Z,25.77
2023-12-11T02:53:27.779Z,26.35
2023-12-11T02:55:54.684Z,29.42
2023-12-11T02:58:21.579Z,20.90
2023-12-11T03:00:48.542Z,25.50
2023-12-11T03:03:15.585Z,32.60
2023-12-11T03:05:42.473Z,28.13
2023-12-11T03:08:09.439Z,26.77
2023-12-11T03:10:36.374Z,32.38
2023-12-11T03:13:03.284Z,29.98
2023-12-11T03:15:32.102Z,32.28
2023-12-11T03:18:00.070Z,28.92
2023-12-11T03:20:27.027Z,28.45
2023-12-11T03:22:54.219Z,31.50
2023-12-11T03:25:21.277Z,29.88
2023-12-11T03:27:48.188Z,28.13
2023-12-11T03:30:15.118Z,30.50
2023-12-11T03:32:42.099Z,29.27
2023-12-11T03:35:09.360Z,27.10
2023-12-11T03:37:36.286Z,25.58
2023-12-11T03:40:03.467Z,29.27
2023-12-11T03:42:30.366Z,29.98
2023-12-11T03:44:58.385Z,34.90
2023-12-11T03:47:25.425Z,27.95
2023-12-11T03:49:52.852Z,25.75
2023-12-11T03:52:19.898Z,27.58
2023-12-11T03:54:46.852Z,22.88
2023-12-11T03:57:13.787Z,25.58
2023-12-11T03:59:41.478Z,28.67
2023-12-11T04:02:08.595Z,27.52
2023-12-11T04:04:35.662Z,27.30
2023-12-11T04:07:02.627Z,34.13
2023-12-11T04:09:29.535Z,27.10
2023-12-11T04:11:56.382Z,26.33
2023-12-11T04:14:23.316Z,33.33
2023-12-11T04:16:50.509Z,29.88
2023-12-11T04:19:17.582Z,25.05
2023-12-11T04:21:44.604Z,23.90
2023-12-11T04:24:13.991Z,25.55
2023-12-11T04:26:42.162Z,22.17
2023-12-11T04:29:09.085Z,23.48
2023-12-11T04:31:35.966Z,26.38
2023-12-11T04:34:03.327Z,24.55
2023-12-11T04:36:30.375Z,17.05
2023-12-11T04:38:57.287Z,29.85
2023-12-11T04:41:24.182Z,25.45
2023-12-11T04:43:51.074Z,27.20
2023-12-11T04:46:18.008Z,21.83
2023-12-11T04:48:45.033Z,21.45
2023-12-11T04:51:11.963Z,19.50
2023-12-11T04:53:38.804Z,19.67
2023-12-11T04:56:09.636Z,21.58
2023-12-11T04:58:36.673Z,30.40
2023-12-11T05:01:04.085Z,19.42
2023-12-11T05:03:31.232Z,24.23
2023-12-11T05:05:59.051Z,23.00
2023-12-11T05:08:29.928Z,17.60
2023-12-11T05:10:57.667Z,26.60
2023-12-11T05:13:25.481Z,21.20
2023-12-11T05:15:52.683Z,25.95
2023-12-11T05:18:19.701Z,23.65
2023-12-11T05:20:46.650Z,22.92
2023-12-11T05:23:13.497Z,24.20
2023-12-11T05:25:40.374Z,20.10
2023-12-11T05:28:07.327Z,24.30
2023-12-11T05:30:34.290Z,21.80
2023-12-11T05:33:01.284Z,22.38
2023-12-11T05:35:28.249Z,25.15
2023-12-11T05:37:59.525Z,19.50
2023-12-11T05:40:26.910Z,22.13
2023-12-11T05:42:54.804Z,25.85
2023-12-11T05:45:21.758Z,27.73
2023-12-11T05:47:48.705Z,23.65
2023-12-11T05:50:15.773Z,22.00
2023-12-11T05:52:42.662Z,21.42
2023-12-11T05:55:10.055Z,19.58
2023-12-11T05:57:37.274Z,22.48
2023-12-11T06:00:05.106Z,19.45
2023-12-11T06:02:32.355Z,24.00
2023-12-11T06:04:59.390Z,26.02
2023-12-11T06:07:26.277Z,20.63
2023-12-11T06:09:53.204Z,20.30
2023-12-11T06:12:20.189Z,24.95
2023-12-11T06:14:49.328Z,19.20
2023-12-11T06:19:43.975Z,19.23
2023-12-11T06:22:11.136Z,27.80
2023-12-11T06:24:42.462Z,33.10
2023-12-11T06:27:09.778Z,25.00
2023-12-11T06:29:37.172Z,25.08
2023-12-11T06:32:04.464Z,27.75
2023-12-11T06:34:31.843Z,23.38
2023-12-11T06:36:59.116Z,20.25
2023-12-11T06:39:28.082Z,31.73
2023-12-11T06:41:55.361Z,27.13
2023-12-11T06:44:23.311Z,19.77
2023-12-11T06:46:50.173Z,25.02
2023-12-11T06:49:17.192Z,23.42
2023-12-11T06:51:44.274Z,25.05
2023-12-11T06:54:12.323Z,32.88
2023-12-11T06:56:39.950Z,28.23
2023-12-11T06:59:06.908Z,25.27
2023-12-11T07:01:35.424Z,19.80
2023-12-11T07:04:03.495Z,20.58
2023-12-11T07:06:33.212Z,23.40
2023-12-11T07:11:27.113Z,18.40
2023-12-11T07:13:54.984Z,23.85
2023-12-11T07:16:24.567Z,19.88
2023-12-11T07:21:18.688Z,20.48
2023-12-11T07:23:45.620Z,24.77
2023-12-11T07:26:12.513Z,26.17
2023-12-11T07:28:40.095Z,21.17
2023-12-11T07:31:07.573Z,17.63
2023-12-11T07:33:35.936Z,22.38
2023-12-11T07:36:03.312Z,18.98
2023-12-11T07:38:31.499Z,28.08
2023-12-11T07:40:58.864Z,21.60
2023-12-11T07:43:25.931Z,20.98
2023-12-11T07:45:53.533Z,28.95
2023-12-11T07:48:20.700Z,23.88
2023-12-11T07:50:47.783Z,25.10
2023-12-11T07:53:15.078Z,17.73
2023-12-11T07:55:42.104Z,21.40
2023-12-11T07:58:09.076Z,26.88
2023-12-11T08:00:36.051Z,19.63
2023-12-11T08:03:05.418Z,19.92
2023-12-11T08:05:32.699Z,22.42
2023-12-11T08:07:59.757Z,21.05
2023-12-11T08:10:26.836Z,24.00
2023-12-11T08:12:54.218Z,19.42
2023-12-11T08:15:21.440Z,20.63
2023-12-11T08:17:48.412Z,18.35
2023-12-11T08:20:18.750Z,19.08
2023-12-11T08:22:46.305Z,18.63
2023-12-11T08:25:14.595Z,23.63
2023-12-11T08:27:43.082Z,17.00
2023-12-11T08:30:11.619Z,18.38
2023-12-11T08:32:40.529Z,21.00
2023-12-11T08:35:08.930Z,18.38
2023-12-11T08:37:36.380Z,18.08
2023-12-11T08:40:05.547Z,19.73
2023-12-11T08:42:37.718Z,16.45
2023-12-11T08:45:08.231Z,15.35
2023-12-11T08:47:38.682Z,14.80
2023-12-11T08:50:07.616Z,15.35
2023-12-11T08:52:34.682Z,11.90
2023-12-11T08:55:01.653Z,16.38
2023-12-11T08:57:30.318Z,15.75
2023-12-11T08:59:58.707Z,13.70
2023-12-11T09:02:25.709Z,14.43
2023-12-11T09:04:52.748Z,13.77
2023-12-11T09:07:19.876Z,13.07
2023-12-11T09:09:47.117Z,12.73
2023-12-11T09:12:23.333Z,13.00
2023-12-11T09:14:58.121Z,14.13
2023-12-11T09:17:25.235Z,15.02
2023-12-11T09:19:55.687Z,10.60
2023-12-11T09:22:23.982Z,11.10
2023-12-11T09:24:51.420Z,12.35
2023-12-11T09:27:18.616Z,15.25
2023-12-11T09:29:49.264Z,13.52
2023-12-11T09:32:16.811Z,16.55
2023-12-11T09:34:43.912Z,12.52
2023-12-11T09:37:10.992Z,15.35
2023-12-11T09:39:41.865Z,12.68
2023-12-11T09:42:09.334Z,11.75
2023-12-11T09:44:37.271Z,13.02
2023-12-11T09:47:12.398Z,12.55
2023-12-11T09:49:39.685Z,10.75
2023-12-11T09:52:07.296Z,15.40
2023-12-11T09:54:34.385Z,15.93
2023-12-11T09:57:02.142Z,12.48
2023-12-11T09:59:31.634Z,13.32
2023-12-11T10:01:59.113Z,12.05
2023-12-11T10:04:26.343Z,10.82
2023-12-11T10:06:53.675Z,14.70
2023-12-11T10:09:31.115Z,11.18
2023-12-11T10:12:05.010Z,11.75
2023-12-11T10:14:32.312Z,11.63
2023-12-11T10:16:59.930Z,10.07
2023-12-11T10:19:33.758Z,11.43
2023-12-11T10:22:04.846Z,7.57
2023-12-11T10:24:32.017Z,9.07
2023-12-11T10:27:00.016Z,16.00
2023-12-11T10:29:28.420Z,8.40
2023-12-11T10:32:02.187Z,10.35
2023-12-11T10:34:47.059Z,7.30
2023-12-11T10:37:15.212Z,11.90
2023-12-11T10:39:56.402Z,14.52
2023-12-11T10:42:24.412Z,7.00
2023-12-11T10:44:54.316Z,9.88
2023-12-11T10:47:22.232Z,12.63
2023-12-11T10:49:50.090Z,10.40
2023-12-11T10:52:17.808Z,9.02
2023-12-11T10:54:46.684Z,8.02
2023-12-11T10:57:15.651Z,7.47
2023-12-11T10:59:42.882Z,9.88
2023-12-11T11:02:11.833Z,10.40
2023-12-11T11:04:40.784Z,10.65
2023-12-11T11:07:28.141Z,5.80
2023-12-11T11:10:06.793Z,8.07
2023-12-11T11:12:56.976Z,9.57
2023-12-11T11:15:24.892Z,7.85
2023-12-11T11:17:58.441Z,9.93
2023-12-11T11:20:26.307Z,8.68
2023-12-11T11:22:53.417Z,7.35
2023-12-11T11:25:33.350Z,7.40
2023-12-11T11:28:00.780Z,7.22
2023-12-11T11:30:43.072Z,10.23
2023-12-11T11:33:10.168Z,7.20
2023-12-11T11:35:50.835Z,9.45
2023-12-11T11:38:19.470Z,10.05
2023-12-11T11:40:46.846Z,7.67
2023-12-11T11:43:16.944Z,4.95
2023-12-11T11:45:44.720Z,8.02
2023-12-11T11:48:12.111Z,7.78
2023-12-11T11:50:51.585Z,9.82
2023-12-11T11:55:45.446Z,7.57
2023-12-11T11:58:14.291Z,11.30
2023-12-11T12:00:43.385Z,9.43
2023-12-11T12:03:10.465Z,9.43
2023-12-11T12:05:38.081Z,11.82
2023-12-11T12:08:11.986Z,7.40
2023-12-11T12:10:38.877Z,4.93
2023-12-11T12:13:06.491Z,6.13
2023-12-11T12:15:52.982Z,10.02
2023-12-11T12:18:20.026Z,5.47
2023-12-11T12:21:03.212Z,6.72
2023-12-11T12:23:30.010Z,6.30
2023-12-11T12:26:00.250Z,10.85
2023-12-11T12:28:30.563Z,7.35
2023-12-11T12:30:57.650Z,8.05
2023-12-11T12:33:24.933Z,9.68
2023-12-11T12:35:52.191Z,9.32
2023-12-11T12:38:19.583Z,5.45
2023-12-11T12:40:46.416Z,6.40
2023-12-11T12:43:14.779Z,9.15
2023-12-11T12:45:43.000Z,10.67
2023-12-11T12:48:10.941Z,9.73
2023-12-11T12:50:38.017Z,5.53
2023-12-11T12:53:10.807Z,5.13
2023-12-11T12:55:39.189Z,8.38
2023-12-11T12:58:06.900Z,6.43
2023-12-11T13:00:37.172Z,6.97
2023-12-11T13:03:08.069Z,9.18
2023-12-11T13:05:45.964Z,8.70
2023-12-11T13:08:15.361Z,9.25
2023-12-11T13:11:08.629Z,7.15
2023-12-11T13:13:35.453Z,8.52
2023-12-11T13:16:02.811Z,11.38
2023-12-11T13:18:35.013Z,8.85
2023-12-11T13:21:02.011Z,9.82
2023-12-11T13:23:28.834Z,9.68
2023-12-11T13:25:55.621Z,5.85
2023-12-11T13:28:22.585Z,7.90
2023-12-11T13:30:49.545Z,8.05
2023-12-11T13:33:16.413Z,6.50
2023-12-11T13:35:43.273Z,8.55
2023-12-11T13:38:10.237Z,6.63
2023-12-11T13:40:37.103Z,5.88
2023-12-11T13:43:04.046Z,5.82
2023-12-11T13:45:30.915Z,9.95
2023-12-11T13:47:57.746Z,6.00
2023-12-11T13:50:24.725Z,7.35
2023-12-11T13:52:51.712Z,4.35
2023-12-11T13:55:18.834Z,6.07
2023-12-11T13:57:46.785Z,7.40
2023-12-11T14:00:16.388Z,5.38
2023-12-11T14:03:00.546Z,7.63
2023-12-11T14:05:32.382Z,7.00
2023-12-11T14:08:00.314Z,8.38
2023-12-11T14:10:27.889Z,6.47
2023-12-11T14:12:54.812Z,5.63
2023-12-11T14:15:21.612Z,6.63
2023-12-11T14:17:48.652Z,6.32
2023-12-11T14:20:15.717Z,10.80
2023-12-11T14:22:42.563Z,7.20
2023-12-11T14:25:09.816Z,7.97
2023-12-11T14:27:36.907Z,7.95
2023-12-11T14:30:04.078Z,5.85
2023-12-11T14:32:32.066Z,8.00
2023-12-11T14:34:58.914Z,4.88
2023-12-11T14:37:25.828Z,10.13
2023-12-11T14:39:54.071Z,5.50
2023-12-11T14:42:24.720Z,5.93
2023-12-11T14:44:51.804Z,6.72
2023-12-11T14:47:18.640Z,7.43
2023-12-11T14:49:45.491Z,7.47
2023-12-11T14:52:13.093Z,8.57
2023-12-11T14:54:40.478Z,6.15
2023-12-11T14:57:07.428Z,5.32
2023-12-11T14:59:34.276Z,9.13
2023-12-11T15:02:01.270Z,8.00
2023-12-11T15:04:28.245Z,8.27
2023-12-11T15:06:55.162Z,8.45
2023-12-11T15:09:21.984Z,7.80
2023-12-11T15:11:48.765Z,8.82
2023-12-11T15:14:15.971Z,9.95
2023-12-11T15:16:45.788Z,6.72
2023-12-11T15:19:12.655Z,10.65
2023-12-11T15:21:39.555Z,14.18
2023-12-11T15:24:06.733Z,7.85
2023-12-11T15:26:33.772Z,10.13
2023-12-11T15:29:04.811Z,10.73
2023-12-11T15:31:31.949Z,8.43
2023-12-11T15:33:58.870Z,11.98
2023-12-11T15:36:25.729Z,10.63
2023-12-11T15:38:52.852Z,9.68
2023-12-11T15:41:20.526Z,10.32
2023-12-11T15:43:47.426Z,11.18
2023-12-11T15:46:14.781Z,11.20
2023-12-11T15:48:46.118Z,11.75
2023-12-11T15:51:18.583Z,12.40
2023-12-11T15:53:46.217Z,10.48
2023-12-11T15:56:16.677Z,9.23
2023-12-11T15:58:44.305Z,9.80
2023-12-11T16:01:11.529Z,14.70
2023-12-11T16:03:42.363Z,8.93
2023-12-11T16:06:09.595Z,12.82
2023-12-11T16:08:37.438Z,9.13
2023-12-11T16:11:04.720Z,12.45
2023-12-11T16:13:31.808Z,12.15
2023-12-11T16:15:58.939Z,12.30
2023-12-11T16:18:26.054Z,14.57
2023-12-11T16:20:52.924Z,13.02
2023-12-11T16:23:19.784Z,10.27
2023-12-11T16:25:55.613Z,12.00
2023-12-11T16:28:27.181Z,6.80
2023-12-11T16:30:54.305Z,9.65
2023-12-11T16:33:21.736Z,9.02
2023-12-11T16:35:48.635Z,11.98
2023-12-11T16:38:15.526Z,6.80
2023-12-11T16:40:42.425Z,12.38
2023-12-11T16:43:09.914Z,12.18
2023-12-11T16:45:37.436Z,14.13
2023-12-11T16:48:04.555Z,12.20
2023-12-11T16:50:31.741Z,15.77
2023-12-11T16:52:58.682Z,11.80
2023-12-11T16:55:25.747Z,12.27
2023-12-11T16:57:52.685Z,13.00
2023-12-11T17:00:19.820Z,13.10
2023-12-11T17:02:46.896Z,8.70
2023-12-11T17:05:14.134Z,12.90
2023-12-11T17:07:41.222Z,9.77
2023-12-11T17:10:08.739Z,12.88
2023-12-11T17:12:36.309Z,11.57
2023-12-11T17:15:03.752Z,12.63
2023-12-11T17:17:30.792Z,13.30
2023-12-11T17:19:58.650Z,11.88
2023-12-11T17:22:25.735Z,16.20
2023-12-11T17:24:52.657Z,13.57
2023-12-11T17:27:19.544Z,13.30
2023-12-11T17:29:46.368Z,10.48
2023-12-11T17:32:13.174Z,13.77
2023-12-11T17:34:40.562Z,9.35
2023-12-11T17:37:07.508Z,14.32
2023-12-11T17:39:34.417Z,10.90
2023-12-11T17:42:01.219Z,10.52
2023-12-11T17:44:28.025Z,9.60
2023-12-11T17:46:54.822Z,12.77
2023-12-11T17:49:21.692Z,9.40
2023-12-11T17:51:50.836Z,14.20
2023-12-11T17:54:17.714Z,9.40
2023-12-11T17:56:44.478Z,13.93
2023-12-11T17:59:11.593Z,16.65
2023-12-11T18:01:39.716Z,12.55
2023-12-11T18:04:08.830Z,11.63
2023-12-11T18:06:35.927Z,9.65
2023-12-11T18:09:04.027Z,8.90
2023-12-11T18:11:30.882Z,8.43
2023-12-11T18:13:57.655Z,9.50
2023-12-11T18:16:25.770Z,12.23
2023-12-11T18:18:52.982Z,10.88
2023-12-11T18:21:19.883Z,11.43
2023-12-11T18:23:46.777Z,8.93
2023-12-11T18:26:13.673Z,10.63
2023-12-11T18:28:40.671Z,12.23
2023-12-11T18:31:07.605Z,13.93
2023-12-11T18:33:34.569Z,8.07
2023-12-11T18:36:01.458Z,10.93
2023-12-11T18:38:28.220Z,13.00
2023-12-11T18:40:55.169Z,9.15
2023-12-11T18:43:23.575Z,11.23
2023-12-11T18:45:50.557Z,10.75
2023-12-11T18:48:17.529Z,6.55
2023-12-11T18:50:44.552Z,13.20
2023-12-11T18:53:11.393Z,11.70
2023-12-11T18:55:38.181Z,10.20
2023-12-11T18:58:05.142Z,10.02
2023-12-11T19:00:32.016Z,9.52
2023-12-11T19:02:59.002Z,11.07
2023-12-11T19:05:26.068Z,9.98
2023-12-11T19:07:53.370Z,12.05
2023-12-11T19:10:20.731Z,8.65
2023-12-11T19:12:50.371Z,8.70
2023-12-11T19:15:17.252Z,11.70
2023-12-11T19:17:44.054Z,8.88
2023-12-11T19:20:11.402Z,8.18
2023-12-11T19:22:38.245Z,10.35
2023-12-11T19:25:05.516Z,12.52
2023-12-11T19:27:32.530Z,7.53
2023-12-11T19:29:59.421Z,8.50
2023-12-11T19:32:27.214Z,9.10
2023-12-11T19:34:54.186Z,9.73
2023-12-11T19:37:21.195Z,9.98
2023-12-11T19:39:48.296Z,12.50
2023-12-11T19:42:15.133Z,9.18
2023-12-11T19:44:42.161Z,9.75
2023-12-11T19:47:09.020Z,9.60
2023-12-11T19:49:36.531Z,12.68
2023-12-11T19:52:03.877Z,8.30
2023-12-11T19:54:30.807Z,7.10
2023-12-11T19:56:57.609Z,11.48
2023-12-11T19:59:24.383Z,9.52
2023-12-11T20:01:53.116Z,11.95
2023-12-11T20:04:21.772Z,10.05
2023-12-11T20:06:48.678Z,11.57
2023-12-11T20:09:15.437Z,11.82
2023-12-11T20:11:42.371Z,7.00
2023-12-11T20:14:09.179Z,6.63
2023-12-11T20:16:35.987Z,9.13
2023-12-11T20:19:03.121Z,11.13
2023-12-11T20:21:30.168Z,9.90
2023-12-11T20:23:56.935Z,10.60
2023-12-11T20:26:24.574Z,16.65
2023-12-11T20:28:51.577Z,9.77
2023-12-11T20:31:19.421Z,7.88
2023-12-11T20:33:47.010Z,7.97
2023-12-11T20:36:17.996Z,9.73
2023-12-11T20:38:45.627Z,10.38
2023-12-11T20:41:19.113Z,7.35
2023-12-11T20:43:46.825Z,9.93
2023-12-11T20:46:13.888Z,9.90
2023-12-11T20:48:40.837Z,12.55
2023-12-11T20:51:08.777Z,10.05
2023-12-11T20:53:38.688Z,12.05
2023-12-11T20:56:08.908Z,9.35
2023-12-11T20:58:35.935Z,7.75
2023-12-11T21:01:02.849Z,13.18
2023-12-11T21:03:29.739Z,12.43
2023-12-11T21:05:56.653Z,7.82
2023-12-11T21:08:26.527Z,9.45
2023-12-11T21:10:53.442Z,10.23
2023-12-11T21:13:20.415Z,12.90
2023-12-11T21:15:47.673Z,9.68
2023-12-11T21:18:14.956Z,11.95
2023-12-11T21:20:42.261Z,8.55
2023-12-11T21:23:09.087Z,7.97
2023-12-11T21:25:36.036Z,11.68
2023-12-11T21:28:03.019Z,7.97
2023-12-11T21:30:29.861Z,8.60
2023-12-11T21:32:56.922Z,9.82
2023-12-11T21:35:23.782Z,9.80
2023-12-11T21:37:50.861Z,10.25
2023-12-11T21:40:17.789Z,12.10
2023-12-11T21:42:44.642Z,11.85
2023-12-11T21:45:11.562Z,9.98
2023-12-11T21:47:38.782Z,10.10
2023-12-11T21:50:05.997Z,8.50
2023-12-11T21:52:33.048Z,7.05
2023-12-11T21:54:59.939Z,11.80
2023-12-11T21:57:26.762Z,8.25
2023-12-11T21:59:53.578Z,11.20
2023-12-11T22:02:20.695Z,10.60
2023-12-11T22:04:47.524Z,15.85
2023-12-11T22:07:16.611Z,10.15
2023-12-11T22:09:45.898Z,8.68
2023-12-11T22:12:12.777Z,12.65
2023-12-11T22:14:39.577Z,10.65
2023-12-11T22:17:06.806Z,8.50
2023-12-11T22:19:35.850Z,10.88
2023-12-11T22:22:02.818Z,12.13
2023-12-11T22:24:30.175Z,9.50
2023-12-11T22:26:58.567Z,9.85
2023-12-11T22:29:25.770Z,13.45
2023-12-11T22:31:52.564Z,15.02
2023-12-11T22:34:19.569Z,11.45
2023-12-11T22:36:46.633Z,9.23
2023-12-11T22:39:13.481Z,11.52
2023-12-11T22:41:40.339Z,8.73
2023-12-11T22:44:07.155Z,13.82
2023-12-11T22:46:34.171Z,15.05
2023-12-11T22:49:01.163Z,7.80
2023-12-11T22:51:28.075Z,11.50
2023-12-11T22:53:54.914Z,9.27
2023-12-11T22:56:21.820Z,13.38
2023-12-11T22:58:48.730Z,12.18
2023-12-11T23:01:15.640Z,10.82
2023-12-11T23:03:42.722Z,10.05
2023-12-11T23:06:13.746Z,8.68
2023-12-11T23:08:40.585Z,13.57
2023-12-11T23:11:08.295Z,9.43
2023-12-11T23:13:35.192Z,9.70
2023-12-11T23:16:02.112Z,15.07
2023-12-11T23:18:29.036Z,9.82
2023-12-11T23:20:55.921Z,8.63
2023-12-11T23:23:22.822Z,10.13
2023-12-11T23:25:54.487Z,14.27
2023-12-11T23:28:25.788Z,9.70
2023-12-11T23:30:52.709Z,8.90
2023-12-11T23:33:20.175Z,11.90
2023-12-11T23:35:47.220Z,15.63
2023-12-11T23:38:14.010Z,10.73
2023-12-11T23:40:40.899Z,11.77
2023-12-11T23:43:07.884Z,7.57
2023-12-11T23:45:34.813Z,11.10
2023-12-11T23:48:01.621Z,12.23
2023-12-11T23:50:28.607Z,10.38
2023-12-11T23:52:55.523Z,8.07
2023-12-11T23:55:22.378Z,11.45
2023-12-11T23:57:49.349Z,9.05
